CPX266 Details

Departure: Charlotte/Douglas International Airport (KCLT)
Arrival: March Air Reserve Base (KRIV) at N/A
Route: BOBZY4 BNA J46 TUL PNH J78 DRK J134 TRM ARKOE1
Notes:


Current Weather Information
KCLT 231152Z 35007KT 10SM FEW250 07/05 A3011 RMK AO2 SLP194 70038 T00720050 10117 20067 51025 $
KRIV 231158Z AUTO 00000KT 10SM CLR 09/M02 A2996 RMK AO2 SLP135 T00891018 10184 20085 56010